sensor_id;sensor_type;location;lat;lon;timestamp;P1;durP1;ratioP1;P2;durP2;ratioP2
41829;SDS011;38614;43.472;23.936;2023-08-30T00:01:54;14.82;;;5.10;;
41829;SDS011;38614;43.472;23.936;2023-08-30T00:04:46;10.05;;;4.85;;
41829;SDS011;38614;43.472;23.936;2023-08-30T00:07:34;7.53;;;4.53;;
41829;SDS011;38614;43.472;23.936;2023-08-30T00:10:21;11.27;;;4.20;;
41829;SDS011;38614;43.472;23.936;2023-08-30T00:13:09;9.40;;;4.28;;
41829;SDS011;38614;43.472;23.936;2023-08-30T00:15:57;5.28;;;4.70;;
41829;SDS011;38614;43.472;23.936;2023-08-30T00:18:45;16.27;;;4.93;;
41829;SDS011;38614;43.472;23.936;2023-08-30T00:21:32;10.15;;;4.40;;
41829;SDS011;38614;43.472;23.936;2023-08-30T00:24:21;18.00;;;4.75;;
41829;SDS011;38614;43.472;23.936;2023-08-30T00:27:09;6.63;;;4.60;;
41829;SDS011;38614;43.472;23.936;2023-08-30T00:29:56;8.00;;;5.35;;
41829;SDS011;38614;43.472;23.936;2023-08-30T00:32:44;10.63;;;4.50;;
41829;SDS011;38614;43.472;23.936;2023-08-30T00:35:32;8.13;;;5.65;;
41829;SDS011;38614;43.472;23.936;2023-08-30T00:38:20;16.30;;;6.13;;
41829;SDS011;38614;43.472;23.936;2023-08-30T00:41:08;8.25;;;5.93;;
41829;SDS011;38614;43.472;23.936;2023-08-30T00:43:55;6.90;;;5.65;;
41829;SDS011;38614;43.472;23.936;2023-08-30T00:46:43;11.13;;;5.60;;
41829;SDS011;38614;43.472;23.936;2023-08-30T00:49:34;8.52;;;5.68;;
41829;SDS011;38614;43.472;23.936;2023-08-30T00:52:22;12.13;;;5.95;;
41829;SDS011;38614;43.472;23.936;2023-08-30T00:55:10;10.25;;;5.57;;
41829;SDS011;38614;43.472;23.936;2023-08-30T00:57:58;15.85;;;5.50;;
41829;SDS011;38614;43.472;23.936;2023-08-30T01:00:47;17.77;;;6.10;;
41829;SDS011;38614;43.472;23.936;2023-08-30T01:03:35;7.55;;;5.00;;
41829;SDS011;38614;43.472;23.936;2023-08-30T01:06:25;10.98;;;6.03;;
41829;SDS011;38614;43.472;23.936;2023-08-30T01:09:13;9.50;;;4.85;;
41829;SDS011;38614;43.472;23.936;2023-08-30T01:12:07;6.40;;;5.07;;
41829;SDS011;38614;43.472;23.936;2023-08-30T01:15:11;7.18;;;4.10;;
41829;SDS011;38614;43.472;23.936;2023-08-30T01:18:03;11.43;;;5.03;;
41829;SDS011;38614;43.472;23.936;2023-08-30T01:20:53;7.38;;;5.18;;
41829;SDS011;38614;43.472;23.936;2023-08-30T01:23:54;10.65;;;3.97;;
41829;SDS011;38614;43.472;23.936;2023-08-30T01:30:11;14.32;;;4.85;;
41829;SDS011;38614;43.472;23.936;2023-08-30T01:33:01;10.65;;;4.90;;
41829;SDS011;38614;43.472;23.936;2023-08-30T01:35:51;9.38;;;5.60;;
41829;SDS011;38614;43.472;23.936;2023-08-30T01:38:40;9.90;;;3.88;;
41829;SDS011;38614;43.472;23.936;2023-08-30T01:41:29;7.00;;;3.92;;
41829;SDS011;38614;43.472;23.936;2023-08-30T01:44:18;17.50;;;5.00;;
41829;SDS011;38614;43.472;23.936;2023-08-30T01:47:07;8.35;;;4.63;;
41829;SDS011;38614;43.472;23.936;2023-08-30T01:49:55;13.32;;;4.70;;
41829;SDS011;38614;43.472;23.936;2023-08-30T01:52:44;7.88;;;4.72;;
41829;SDS011;38614;43.472;23.936;2023-08-30T01:55:33;5.63;;;4.43;;
41829;SDS011;38614;43.472;23.936;2023-08-30T01:58:25;6.20;;;4.05;;
41829;SDS011;38614;43.472;23.936;2023-08-30T02:01:13;10.25;;;4.40;;
41829;SDS011;38614;43.472;23.936;2023-08-30T02:04:01;11.15;;;4.32;;
41829;SDS011;38614;43.472;23.936;2023-08-30T02:06:51;10.38;;;4.05;;
41829;SDS011;38614;43.472;23.936;2023-08-30T02:09:56;21.60;;;5.78;;
41829;SDS011;38614;43.472;23.936;2023-08-30T02:12:49;12.38;;;4.05;;
41829;SDS011;38614;43.472;23.936;2023-08-30T02:15:41;5.82;;;4.68;;
41829;SDS011;38614;43.472;23.936;2023-08-30T02:18:31;9.00;;;5.07;;
41829;SDS011;38614;43.472;23.936;2023-08-30T02:21:21;12.10;;;4.32;;
41829;SDS011;38614;43.472;23.936;2023-08-30T02:24:10;12.25;;;4.15;;
41829;SDS011;38614;43.472;23.936;2023-08-30T02:26:58;6.05;;;3.45;;
41829;SDS011;38614;43.472;23.936;2023-08-30T02:29:45;7.00;;;3.83;;
41829;SDS011;38614;43.472;23.936;2023-08-30T02:32:33;9.32;;;4.70;;
41829;SDS011;38614;43.472;23.936;2023-08-30T02:35:22;13.82;;;5.15;;
41829;SDS011;38614;43.472;23.936;2023-08-30T02:38:10;8.02;;;4.22;;
41829;SDS011;38614;43.472;23.936;2023-08-30T02:40:58;9.23;;;4.65;;
41829;SDS011;38614;43.472;23.936;2023-08-30T02:43:45;8.00;;;4.28;;
41829;SDS011;38614;43.472;23.936;2023-08-30T02:46:33;9.15;;;4.63;;
41829;SDS011;38614;43.472;23.936;2023-08-30T02:49:24;6.95;;;4.25;;
41829;SDS011;38614;43.472;23.936;2023-08-30T02:52:11;8.45;;;5.13;;
41829;SDS011;38614;43.472;23.936;2023-08-30T02:54:59;7.60;;;5.28;;
41829;SDS011;38614;43.472;23.936;2023-08-30T02:57:47;11.77;;;6.28;;
41829;SDS011;38614;43.472;23.936;2023-08-30T03:00:35;8.00;;;5.10;;
41829;SDS011;38614;43.472;23.936;2023-08-30T03:03:24;8.50;;;5.30;;
41829;SDS011;38614;43.472;23.936;2023-08-30T03:06:12;8.88;;;5.80;;
41829;SDS011;38614;43.472;23.936;2023-08-30T03:09:01;8.00;;;5.03;;
41829;SDS011;38614;43.472;23.936;2023-08-30T03:11:53;7.75;;;4.97;;
41829;SDS011;38614;43.472;23.936;2023-08-30T03:14:43;9.23;;;5.72;;
41829;SDS011;38614;43.472;23.936;2023-08-30T03:17:34;15.23;;;4.83;;
41829;SDS011;38614;43.472;23.936;2023-08-30T03:20:23;9.40;;;4.78;;
41829;SDS011;38614;43.472;23.936;2023-08-30T03:23:11;6.53;;;5.43;;
41829;SDS011;38614;43.472;23.936;2023-08-30T03:25:59;6.88;;;4.97;;
41829;SDS011;38614;43.472;23.936;2023-08-30T03:28:48;10.98;;;6.05;;
41829;SDS011;38614;43.472;23.936;2023-08-30T03:31:36;12.57;;;5.53;;
41829;SDS011;38614;43.472;23.936;2023-08-30T03:34:24;12.48;;;6.40;;
41829;SDS011;38614;43.472;23.936;2023-08-30T03:37:15;24.38;;;8.88;;
41829;SDS011;38614;43.472;23.936;2023-08-30T03:40:04;23.27;;;7.57;;
41829;SDS011;38614;43.472;23.936;2023-08-30T03:42:53;11.93;;;7.40;;
41829;SDS011;38614;43.472;23.936;2023-08-30T03:45:41;18.98;;;8.30;;
41829;SDS011;38614;43.472;23.936;2023-08-30T03:48:29;13.27;;;7.15;;
41829;SDS011;38614;43.472;23.936;2023-08-30T03:51:19;16.13;;;7.40;;
41829;SDS011;38614;43.472;23.936;2023-08-30T03:54:08;19.83;;;9.50;;
41829;SDS011;38614;43.472;23.936;2023-08-30T03:57:00;20.00;;;9.63;;
41829;SDS011;38614;43.472;23.936;2023-08-30T03:59:48;19.60;;;9.23;;
41829;SDS011;38614;43.472;23.936;2023-08-30T04:02:36;22.45;;;8.82;;
41829;SDS011;38614;43.472;23.936;2023-08-30T04:05:26;27.23;;;8.35;;
41829;SDS011;38614;43.472;23.936;2023-08-30T04:08:16;22.65;;;8.23;;
41829;SDS011;38614;43.472;23.936;2023-08-30T04:11:03;19.52;;;8.80;;
41829;SDS011;38614;43.472;23.936;2023-08-30T04:13:55;14.48;;;7.03;;
41829;SDS011;38614;43.472;23.936;2023-08-30T04:16:42;14.25;;;8.13;;
41829;SDS011;38614;43.472;23.936;2023-08-30T04:19:31;17.65;;;8.40;;
41829;SDS011;38614;43.472;23.936;2023-08-30T04:22:19;24.75;;;8.57;;
41829;SDS011;38614;43.472;23.936;2023-08-30T04:25:09;26.65;;;9.30;;
41829;SDS011;38614;43.472;23.936;2023-08-30T04:28:00;13.38;;;8.15;;
41829;SDS011;38614;43.472;23.936;2023-08-30T04:30:48;16.23;;;8.75;;
41829;SDS011;38614;43.472;23.936;2023-08-30T04:33:36;20.98;;;9.60;;
41829;SDS011;38614;43.472;23.936;2023-08-30T04:36:24;11.50;;;7.20;;
41829;SDS011;38614;43.472;23.936;2023-08-30T04:39:12;12.43;;;7.85;;
41829;SDS011;38614;43.472;23.936;2023-08-30T04:42:01;15.55;;;7.43;;
41829;SDS011;38614;43.472;23.936;2023-08-30T04:44:50;15.23;;;7.40;;
41829;SDS011;38614;43.472;23.936;2023-08-30T04:47:41;13.68;;;8.23;;
41829;SDS011;38614;43.472;23.936;2023-08-30T04:50:32;11.00;;;8.07;;
41829;SDS011;38614;43.472;23.936;2023-08-30T04:53:21;13.88;;;8.43;;
41829;SDS011;38614;43.472;23.936;2023-08-30T04:56:15;16.45;;;9.15;;
41829;SDS011;38614;43.472;23.936;2023-08-30T04:59:05;10.73;;;7.72;;
41829;SDS011;38614;43.472;23.936;2023-08-30T05:01:58;14.60;;;8.30;;
41829;SDS011;38614;43.472;23.936;2023-08-30T05:04:52;14.48;;;7.72;;
41829;SDS011;38614;43.472;23.936;2023-08-30T05:07:42;15.10;;;8.55;;
41829;SDS011;38614;43.472;23.936;2023-08-30T05:10:32;12.80;;;8.82;;
41829;SDS011;38614;43.472;23.936;2023-08-30T05:13:20;13.80;;;7.10;;
41829;SDS011;38614;43.472;23.936;2023-08-30T05:16:13;12.82;;;7.45;;
41829;SDS011;38614;43.472;23.936;2023-08-30T05:19:01;11.35;;;6.25;;
41829;SDS011;38614;43.472;23.936;2023-08-30T05:21:49;11.80;;;6.35;;
41829;SDS011;38614;43.472;23.936;2023-08-30T05:24:40;8.10;;;6.40;;
41829;SDS011;38614;43.472;23.936;2023-08-30T05:27:29;7.88;;;6.05;;
41829;SDS011;38614;43.472;23.936;2023-08-30T05:30:18;13.30;;;7.18;;
41829;SDS011;38614;43.472;23.936;2023-08-30T05:33:35;13.98;;;6.90;;
41829;SDS011;38614;43.472;23.936;2023-08-30T05:36:52;11.07;;;6.57;;
41829;SDS011;38614;43.472;23.936;2023-08-30T05:40:10;16.27;;;6.32;;
41829;SDS011;38614;43.472;23.936;2023-08-30T05:43:02;14.75;;;6.40;;
41829;SDS011;38614;43.472;23.936;2023-08-30T05:45:50;12.25;;;6.25;;
41829;SDS011;38614;43.472;23.936;2023-08-30T05:48:39;10.63;;;6.70;;
41829;SDS011;38614;43.472;23.936;2023-08-30T05:51:31;17.35;;;6.80;;
41829;SDS011;38614;43.472;23.936;2023-08-30T05:54:21;18.38;;;6.53;;
41829;SDS011;38614;43.472;23.936;2023-08-30T05:57:31;9.95;;;5.43;;
41829;SDS011;38614;43.472;23.936;2023-08-30T06:00:22;6.15;;;4.88;;
41829;SDS011;38614;43.472;23.936;2023-08-30T06:03:10;6.97;;;5.13;;
41829;SDS011;38614;43.472;23.936;2023-08-30T06:06:01;15.65;;;5.63;;
41829;SDS011;38614;43.472;23.936;2023-08-30T06:08:49;8.73;;;5.18;;
41829;SDS011;38614;43.472;23.936;2023-08-30T06:11:39;6.80;;;5.05;;
41829;SDS011;38614;43.472;23.936;2023-08-30T06:14:27;11.43;;;5.90;;
41829;SDS011;38614;43.472;23.936;2023-08-30T06:22:01;10.60;;;5.18;;
41829;SDS011;38614;43.472;23.936;2023-08-30T06:24:50;10.98;;;5.45;;
41829;SDS011;38614;43.472;23.936;2023-08-30T06:27:40;7.45;;;5.55;;
41829;SDS011;38614;43.472;23.936;2023-08-30T06:33:47;11.55;;;5.68;;
41829;SDS011;38614;43.472;23.936;2023-08-30T06:36:35;6.45;;;4.50;;
41829;SDS011;38614;43.472;23.936;2023-08-30T06:39:32;10.40;;;5.15;;
41829;SDS011;38614;43.472;23.936;2023-08-30T06:42:21;7.00;;;5.20;;
41829;SDS011;38614;43.472;23.936;2023-08-30T06:45:12;7.93;;;5.70;;
41829;SDS011;38614;43.472;23.936;2023-08-30T06:48:14;6.53;;;5.20;;
41829;SDS011;38614;43.472;23.936;2023-08-30T06:51:09;9.35;;;5.35;;
41829;SDS011;38614;43.472;23.936;2023-08-30T06:54:00;6.53;;;4.38;;
41829;SDS011;38614;43.472;23.936;2023-08-30T06:56:57;6.15;;;3.83;;
41829;SDS011;38614;43.472;23.936;2023-08-30T06:59:46;6.20;;;4.05;;
41829;SDS011;38614;43.472;23.936;2023-08-30T07:02:37;10.48;;;4.00;;
41829;SDS011;38614;43.472;23.936;2023-08-30T07:05:25;8.38;;;3.80;;
41829;SDS011;38614;43.472;23.936;2023-08-30T07:08:16;4.75;;;3.38;;
41829;SDS011;38614;43.472;23.936;2023-08-30T07:11:06;7.50;;;4.70;;
41829;SDS011;38614;43.472;23.936;2023-08-30T07:14:19;5.18;;;3.60;;
41829;SDS011;38614;43.472;23.936;2023-08-30T07:17:10;10.07;;;3.65;;
41829;SDS011;38614;43.472;23.936;2023-08-30T07:20:00;5.28;;;3.00;;
41829;SDS011;38614;43.472;23.936;2023-08-30T07:22:48;9.93;;;3.90;;
41829;SDS011;38614;43.472;23.936;2023-08-30T07:25:36;10.05;;;3.90;;
41829;SDS011;38614;43.472;23.936;2023-08-30T07:28:24;3.65;;;2.58;;
41829;SDS011;38614;43.472;23.936;2023-08-30T07:31:12;6.78;;;2.70;;
41829;SDS011;38614;43.472;23.936;2023-08-30T07:34:07;3.13;;;2.70;;
41829;SDS011;38614;43.472;23.936;2023-08-30T07:36:55;7.30;;;3.58;;
41829;SDS011;38614;43.472;23.936;2023-08-30T07:39:43;5.75;;;2.95;;
41829;SDS011;38614;43.472;23.936;2023-08-30T07:42:32;6.28;;;3.05;;
41829;SDS011;38614;43.472;23.936;2023-08-30T07:45:21;7.03;;;2.67;;
41829;SDS011;38614;43.472;23.936;2023-08-30T07:48:12;2.40;;;2.20;;
41829;SDS011;38614;43.472;23.936;2023-08-30T07:51:03;12.60;;;2.85;;
41829;SDS011;38614;43.472;23.936;2023-08-30T07:53:54;7.45;;;3.30;;
41829;SDS011;38614;43.472;23.936;2023-08-30T07:56:48;3.05;;;2.70;;
41829;SDS011;38614;43.472;23.936;2023-08-30T07:59:40;5.22;;;2.72;;
41829;SDS011;38614;43.472;23.936;2023-08-30T08:02:31;4.40;;;2.42;;
41829;SDS011;38614;43.472;23.936;2023-08-30T08:05:19;6.25;;;2.85;;
41829;SDS011;38614;43.472;23.936;2023-08-30T08:08:07;3.95;;;2.65;;
41829;SDS011;38614;43.472;23.936;2023-08-30T08:10:58;3.17;;;2.75;;
41829;SDS011;38614;43.472;23.936;2023-08-30T08:13:47;4.78;;;2.88;;
41829;SDS011;38614;43.472;23.936;2023-08-30T08:16:35;3.55;;;2.80;;
41829;SDS011;38614;43.472;23.936;2023-08-30T08:19:23;4.15;;;3.05;;
41829;SDS011;38614;43.472;23.936;2023-08-30T08:22:12;5.75;;;3.08;;
41829;SDS011;38614;43.472;23.936;2023-08-30T08:25:00;6.78;;;3.28;;
41829;SDS011;38614;43.472;23.936;2023-08-30T08:27:56;6.30;;;2.65;;
41829;SDS011;38614;43.472;23.936;2023-08-30T08:30:45;3.38;;;3.08;;
41829;SDS011;38614;43.472;23.936;2023-08-30T08:33:33;4.30;;;2.63;;
41829;SDS011;38614;43.472;23.936;2023-08-30T08:36:24;2.83;;;2.47;;
41829;SDS011;38614;43.472;23.936;2023-08-30T08:39:12;3.05;;;2.78;;
41829;SDS011;38614;43.472;23.936;2023-08-30T08:42:02;5.43;;;2.50;;
41829;SDS011;38614;43.472;23.936;2023-08-30T08:44:53;3.55;;;2.15;;
41829;SDS011;38614;43.472;23.936;2023-08-30T08:47:41;6.85;;;2.15;;
41829;SDS011;38614;43.472;23.936;2023-08-30T08:50:32;8.70;;;3.45;;
41829;SDS011;38614;43.472;23.936;2023-08-30T08:53:23;3.47;;;1.83;;
41829;SDS011;38614;43.472;23.936;2023-08-30T08:56:11;3.58;;;2.08;;
41829;SDS011;38614;43.472;23.936;2023-08-30T08:59:00;2.10;;;1.48;;
41829;SDS011;38614;43.472;23.936;2023-08-30T09:01:49;7.03;;;1.58;;
41829;SDS011;38614;43.472;23.936;2023-08-30T09:04:42;2.25;;;2.03;;
41829;SDS011;38614;43.472;23.936;2023-08-30T09:07:31;2.58;;;1.50;;
41829;SDS011;38614;43.472;23.936;2023-08-30T09:10:20;6.38;;;1.75;;
41829;SDS011;38614;43.472;23.936;2023-08-30T09:13:16;3.40;;;1.52;;
41829;SDS011;38614;43.472;23.936;2023-08-30T09:20:39;5.97;;;1.40;;
41829;SDS011;38614;43.472;23.936;2023-08-30T09:23:36;4.03;;;1.60;;
41829;SDS011;38614;43.472;23.936;2023-08-30T09:26:53;2.78;;;1.40;;
41829;SDS011;38614;43.472;23.936;2023-08-30T09:30:22;7.45;;;1.40;;
41829;SDS011;38614;43.472;23.936;2023-08-30T09:33:13;6.80;;;2.03;;
41829;SDS011;38614;43.472;23.936;2023-08-30T09:36:09;4.13;;;2.15;;
41829;SDS011;38614;43.472;23.936;2023-08-30T09:38:58;6.88;;;2.08;;
41829;SDS011;38614;43.472;23.936;2023-08-30T09:41:46;6.00;;;1.77;;
41829;SDS011;38614;43.472;23.936;2023-08-30T09:44:49;1.98;;;1.75;;
41829;SDS011;38614;43.472;23.936;2023-08-30T09:47:49;1.48;;;1.08;;
41829;SDS011;38614;43.472;23.936;2023-08-30T09:50:40;5.35;;;1.70;;
41829;SDS011;38614;43.472;23.936;2023-08-30T09:53:47;5.32;;;1.63;;
41829;SDS011;38614;43.472;23.936;2023-08-30T09:57:09;4.53;;;1.77;;
41829;SDS011;38614;43.472;23.936;2023-08-30T09:59:58;5.28;;;1.70;;
41829;SDS011;38614;43.472;23.936;2023-08-30T10:03:13;6.25;;;2.25;;
41829;SDS011;38614;43.472;23.936;2023-08-30T10:06:18;4.25;;;1.55;;
41829;SDS011;38614;43.472;23.936;2023-08-30T10:13:11;5.90;;;1.98;;
41829;SDS011;38614;43.472;23.936;2023-08-30T10:16:03;5.97;;;2.03;;
41829;SDS011;38614;43.472;23.936;2023-08-30T10:19:14;2.40;;;1.70;;
41829;SDS011;38614;43.472;23.936;2023-08-30T10:22:14;1.88;;;1.45;;
41829;SDS011;38614;43.472;23.936;2023-08-30T10:25:11;5.30;;;0.98;;
41829;SDS011;38614;43.472;23.936;2023-08-30T10:28:10;2.03;;;1.92;;
41829;SDS011;38614;43.472;23.936;2023-08-30T10:31:13;3.53;;;1.08;;
41829;SDS011;38614;43.472;23.936;2023-08-30T10:34:11;2.22;;;1.45;;
41829;SDS011;38614;43.472;23.936;2023-08-30T10:37:11;4.90;;;1.65;;
41829;SDS011;38614;43.472;23.936;2023-08-30T10:40:04;2.43;;;1.73;;
41829;SDS011;38614;43.472;23.936;2023-08-30T10:43:04;6.95;;;1.48;;
41829;SDS011;38614;43.472;23.936;2023-08-30T10:46:01;3.13;;;1.17;;
41829;SDS011;38614;43.472;23.936;2023-08-30T10:48:51;4.93;;;1.90;;
41829;SDS011;38614;43.472;23.936;2023-08-30T10:51:45;9.70;;;1.60;;
41829;SDS011;38614;43.472;23.936;2023-08-30T10:54:48;9.43;;;2.45;;
41829;SDS011;38614;43.472;23.936;2023-08-30T10:58:00;4.03;;;1.13;;
41829;SDS011;38614;43.472;23.936;2023-08-30T11:01:24;1.80;;;0.80;;
41829;SDS011;38614;43.472;23.936;2023-08-30T11:04:19;1.85;;;1.27;;
41829;SDS011;38614;43.472;23.936;2023-08-30T11:07:12;3.80;;;1.63;;
41829;SDS011;38614;43.472;23.936;2023-08-30T11:10:05;4.50;;;1.48;;
41829;SDS011;38614;43.472;23.936;2023-08-30T11:13:08;2.47;;;1.15;;
41829;SDS011;38614;43.472;23.936;2023-08-30T11:16:03;3.38;;;1.35;;
41829;SDS011;38614;43.472;23.936;2023-08-30T11:18:56;2.65;;;1.20;;
41829;SDS011;38614;43.472;23.936;2023-08-30T11:21:47;3.25;;;1.40;;
41829;SDS011;38614;43.472;23.936;2023-08-30T11:24:36;1.83;;;1.60;;
41829;SDS011;38614;43.472;23.936;2023-08-30T11:27:24;4.40;;;1.27;;
41829;SDS011;38614;43.472;23.936;2023-08-30T11:30:12;3.33;;;1.42;;
41829;SDS011;38614;43.472;23.936;2023-08-30T11:33:00;7.95;;;1.92;;
41829;SDS011;38614;43.472;23.936;2023-08-30T11:35:50;1.65;;;1.30;;
41829;SDS011;38614;43.472;23.936;2023-08-30T11:38:40;7.65;;;2.03;;
41829;SDS011;38614;43.472;23.936;2023-08-30T11:41:28;4.97;;;1.75;;
41829;SDS011;38614;43.472;23.936;2023-08-30T11:44:15;5.57;;;2.10;;
41829;SDS011;38614;43.472;23.936;2023-08-30T11:47:06;5.03;;;1.90;;
41829;SDS011;38614;43.472;23.936;2023-08-30T11:49:55;5.72;;;2.05;;
41829;SDS011;38614;43.472;23.936;2023-08-30T11:52:44;1.58;;;1.48;;
41829;SDS011;38614;43.472;23.936;2023-08-30T11:55:33;2.60;;;1.70;;
41829;SDS011;38614;43.472;23.936;2023-08-30T11:58:21;7.88;;;2.17;;
41829;SDS011;38614;43.472;23.936;2023-08-30T12:01:12;4.03;;;1.80;;
41829;SDS011;38614;43.472;23.936;2023-08-30T12:04:08;4.25;;;1.73;;
41829;SDS011;38614;43.472;23.936;2023-08-30T12:06:57;3.60;;;2.15;;
41829;SDS011;38614;43.472;23.936;2023-08-30T12:09:50;3.30;;;1.63;;
41829;SDS011;38614;43.472;23.936;2023-08-30T12:12:38;2.30;;;2.00;;
41829;SDS011;38614;43.472;23.936;2023-08-30T12:15:31;2.83;;;1.20;;
41829;SDS011;38614;43.472;23.936;2023-08-30T12:18:31;7.63;;;2.00;;
41829;SDS011;38614;43.472;23.936;2023-08-30T12:21:30;7.00;;;2.15;;
41829;SDS011;38614;43.472;23.936;2023-08-30T12:27:46;8.05;;;2.25;;
41829;SDS011;38614;43.472;23.936;2023-08-30T12:30:34;8.23;;;2.30;;
41829;SDS011;38614;43.472;23.936;2023-08-30T12:33:22;6.25;;;2.10;;
41829;SDS011;38614;43.472;23.936;2023-08-30T12:36:12;15.23;;;2.20;;
41829;SDS011;38614;43.472;23.936;2023-08-30T12:39:00;7.22;;;2.35;;
41829;SDS011;38614;43.472;23.936;2023-08-30T12:41:48;2.38;;;1.70;;
41829;SDS011;38614;43.472;23.936;2023-08-30T12:44:36;2.60;;;1.48;;
41829;SDS011;38614;43.472;23.936;2023-08-30T12:47:24;2.60;;;1.83;;
41829;SDS011;38614;43.472;23.936;2023-08-30T12:50:12;5.65;;;2.08;;
41829;SDS011;38614;43.472;23.936;2023-08-30T12:53:01;3.85;;;2.40;;
41829;SDS011;38614;43.472;23.936;2023-08-30T12:55:53;4.95;;;1.83;;
41829;SDS011;38614;43.472;23.936;2023-08-30T12:58:41;4.30;;;2.00;;
41829;SDS011;38614;43.472;23.936;2023-08-30T13:01:28;2.03;;;1.63;;
41829;SDS011;38614;43.472;23.936;2023-08-30T13:04:17;2.10;;;1.63;;
41829;SDS011;38614;43.472;23.936;2023-08-30T13:07:05;9.02;;;1.70;;
41829;SDS011;38614;43.472;23.936;2023-08-30T13:09:53;2.92;;;1.55;;
41829;SDS011;38614;43.472;23.936;2023-08-30T13:12:41;1.20;;;1.10;;
41829;SDS011;38614;43.472;23.936;2023-08-30T13:15:29;6.75;;;2.40;;
41829;SDS011;38614;43.472;23.936;2023-08-30T13:18:17;3.92;;;2.03;;
41829;SDS011;38614;43.472;23.936;2023-08-30T13:21:25;4.60;;;1.80;;
41829;SDS011;38614;43.472;23.936;2023-08-30T13:24:27;3.22;;;1.95;;
41829;SDS011;38614;43.472;23.936;2023-08-30T13:27:15;2.05;;;1.58;;
41829;SDS011;38614;43.472;23.936;2023-08-30T13:30:03;5.07;;;1.90;;
41829;SDS011;38614;43.472;23.936;2023-08-30T13:32:51;5.03;;;1.67;;
41829;SDS011;38614;43.472;23.936;2023-08-30T13:35:42;2.78;;;1.85;;
41829;SDS011;38614;43.472;23.936;2023-08-30T13:38:29;4.78;;;1.75;;
41829;SDS011;38614;43.472;23.936;2023-08-30T13:41:18;2.45;;;1.85;;
41829;SDS011;38614;43.472;23.936;2023-08-30T13:44:06;2.22;;;1.70;;
41829;SDS011;38614;43.472;23.936;2023-08-30T13:46:55;2.88;;;1.67;;
41829;SDS011;38614;43.472;23.936;2023-08-30T13:49:44;1.80;;;1.70;;
41829;SDS011;38614;43.472;23.936;2023-08-30T13:52:31;4.85;;;1.73;;
41829;SDS011;38614;43.472;23.936;2023-08-30T13:55:20;2.78;;;1.83;;
41829;SDS011;38614;43.472;23.936;2023-08-30T13:58:08;5.75;;;1.90;;
41829;SDS011;38614;43.472;23.936;2023-08-30T14:00:56;1.73;;;1.63;;
41829;SDS011;38614;43.472;23.936;2023-08-30T14:03:44;1.67;;;1.45;;
41829;SDS011;38614;43.472;23.936;2023-08-30T14:06:34;3.40;;;1.20;;
41829;SDS011;38614;43.472;23.936;2023-08-30T14:09:22;4.18;;;2.08;;
41829;SDS011;38614;43.472;23.936;2023-08-30T14:12:10;1.65;;;1.45;;
41829;SDS011;38614;43.472;23.936;2023-08-30T14:14:58;3.47;;;1.58;;
41829;SDS011;38614;43.472;23.936;2023-08-30T14:17:45;3.70;;;1.70;;
41829;SDS011;38614;43.472;23.936;2023-08-30T14:20:34;3.70;;;1.90;;
41829;SDS011;38614;43.472;23.936;2023-08-30T14:23:22;8.98;;;2.10;;
41829;SDS011;38614;43.472;23.936;2023-08-30T14:26:11;6.40;;;1.88;;
41829;SDS011;38614;43.472;23.936;2023-08-30T14:29:00;5.68;;;1.60;;
41829;SDS011;38614;43.472;23.936;2023-08-30T14:31:48;5.13;;;1.95;;
41829;SDS011;38614;43.472;23.936;2023-08-30T14:34:36;6.50;;;2.97;;
41829;SDS011;38614;43.472;23.936;2023-08-30T14:37:24;4.55;;;2.30;;
41829;SDS011;38614;43.472;23.936;2023-08-30T14:40:12;2.10;;;1.85;;
41829;SDS011;38614;43.472;23.936;2023-08-30T14:43:00;5.63;;;1.30;;
41829;SDS011;38614;43.472;23.936;2023-08-30T14:45:48;6.68;;;2.03;;
41829;SDS011;38614;43.472;23.936;2023-08-30T14:48:52;2.08;;;1.45;;
41829;SDS011;38614;43.472;23.936;2023-08-30T14:51:40;1.83;;;1.35;;
41829;SDS011;38614;43.472;23.936;2023-08-30T14:54:31;4.25;;;1.23;;
41829;SDS011;38614;43.472;23.936;2023-08-30T14:57:22;4.00;;;1.30;;
41829;SDS011;38614;43.472;23.936;2023-08-30T15:00:12;2.83;;;1.58;;
41829;SDS011;38614;43.472;23.936;2023-08-30T15:03:00;4.47;;;1.58;;
41829;SDS011;38614;43.472;23.936;2023-08-30T15:05:54;2.05;;;1.45;;
41829;SDS011;38614;43.472;23.936;2023-08-30T15:08:43;6.93;;;1.35;;
41829;SDS011;38614;43.472;23.936;2023-08-30T15:11:31;2.13;;;1.38;;
41829;SDS011;38614;43.472;23.936;2023-08-30T15:14:19;2.53;;;1.80;;
41829;SDS011;38614;43.472;23.936;2023-08-30T15:20:07;2.08;;;1.15;;
41829;SDS011;38614;43.472;23.936;2023-08-30T15:22:55;8.23;;;1.38;;
41829;SDS011;38614;43.472;23.936;2023-08-30T15:25:46;2.72;;;1.35;;
41829;SDS011;38614;43.472;23.936;2023-08-30T15:28:36;2.53;;;2.00;;
41829;SDS011;38614;43.472;23.936;2023-08-30T15:31:24;4.95;;;1.77;;
41829;SDS011;38614;43.472;23.936;2023-08-30T15:34:14;5.35;;;1.88;;
41829;SDS011;38614;43.472;23.936;2023-08-30T15:37:02;3.22;;;1.73;;
41829;SDS011;38614;43.472;23.936;2023-08-30T15:39:57;4.60;;;1.52;;
41829;SDS011;38614;43.472;23.936;2023-08-30T15:42:49;6.18;;;1.48;;
41829;SDS011;38614;43.472;23.936;2023-08-30T15:45:39;2.00;;;1.88;;
41829;SDS011;38614;43.472;23.936;2023-08-30T15:48:29;3.13;;;1.75;;
41829;SDS011;38614;43.472;23.936;2023-08-30T15:51:17;10.70;;;2.88;;
41829;SDS011;38614;43.472;23.936;2023-08-30T15:54:11;5.88;;;1.38;;
41829;SDS011;38614;43.472;23.936;2023-08-30T15:56:59;3.90;;;2.22;;
41829;SDS011;38614;43.472;23.936;2023-08-30T15:59:47;2.55;;;1.80;;
41829;SDS011;38614;43.472;23.936;2023-08-30T16:02:38;2.55;;;2.28;;
41829;SDS011;38614;43.472;23.936;2023-08-30T16:05:30;4.75;;;2.28;;
41829;SDS011;38614;43.472;23.936;2023-08-30T16:08:18;6.03;;;1.55;;
41829;SDS011;38614;43.472;23.936;2023-08-30T16:11:13;7.55;;;2.13;;
41829;SDS011;38614;43.472;23.936;2023-08-30T16:14:01;9.50;;;1.40;;
41829;SDS011;38614;43.472;23.936;2023-08-30T16:16:48;4.28;;;1.98;;
41829;SDS011;38614;43.472;23.936;2023-08-30T16:19:37;2.80;;;1.38;;
41829;SDS011;38614;43.472;23.936;2023-08-30T16:22:25;4.30;;;1.25;;
41829;SDS011;38614;43.472;23.936;2023-08-30T16:25:14;7.45;;;1.58;;
41829;SDS011;38614;43.472;23.936;2023-08-30T16:28:02;10.70;;;1.83;;
41829;SDS011;38614;43.472;23.936;2023-08-30T16:30:53;5.15;;;1.55;;
41829;SDS011;38614;43.472;23.936;2023-08-30T16:33:45;3.55;;;1.98;;
41829;SDS011;38614;43.472;23.936;2023-08-30T16:36:33;3.45;;;1.10;;
41829;SDS011;38614;43.472;23.936;2023-08-30T16:39:24;3.10;;;1.35;;
41829;SDS011;38614;43.472;23.936;2023-08-30T16:42:12;4.47;;;1.25;;
41829;SDS011;38614;43.472;23.936;2023-08-30T16:45:00;1.15;;;0.63;;
41829;SDS011;38614;43.472;23.936;2023-08-30T16:47:48;3.25;;;1.25;;
41829;SDS011;38614;43.472;23.936;2023-08-30T16:50:53;1.95;;;0.82;;
41829;SDS011;38614;43.472;23.936;2023-08-30T16:53:41;8.10;;;0.57;;
41829;SDS011;38614;43.472;23.936;2023-08-30T16:56:28;4.28;;;1.33;;
41829;SDS011;38614;43.472;23.936;2023-08-30T16:59:16;2.53;;;0.60;;
41829;SDS011;38614;43.472;23.936;2023-08-30T17:02:04;1.85;;;0.65;;
41829;SDS011;38614;43.472;23.936;2023-08-30T17:04:52;2.63;;;0.77;;
41829;SDS011;38614;43.472;23.936;2023-08-30T17:07:40;9.52;;;0.85;;
41829;SDS011;38614;43.472;23.936;2023-08-30T17:10:30;2.38;;;0.52;;
41829;SDS011;38614;43.472;23.936;2023-08-30T17:13:17;1.90;;;0.60;;
41829;SDS011;38614;43.472;23.936;2023-08-30T17:16:05;4.30;;;0.55;;
41829;SDS011;38614;43.472;23.936;2023-08-30T17:18:58;1.50;;;0.50;;